Airfield :
LOGIN :

Register | Disclaimer

   EN    FR    IT 

 










Legend :    VFR   Marginal VFR   IFR   Intensive IFR   Very Intensive IFR
Visi :
Ceiling :
>= 8 km
>= 3000ft
5 to 8 km
1000 to 3000 ft
1500m to 5 km
500 to 1000 ft
800 to 1500m
200 to 500 ft
< 800m
< 200 ft
Symbols :   Thunderstorms  Fog  Heavy snow  Heavy precipitations  Wind > 20 kt
SIGMETs :     Misc.  Thunderstorms  Icing  Turbulence  Mountain Waves  Volcanic Ashes






- Airport Elevation : 2945 ft
- IATA code : RGS


LEBG - Burgos

CURRENT METAR :
  • 061800Z AUTO 01001KT 9999 -RA FEW017/// SCT050/// ///CB 13/12 Q1010

EXPIRED METARs :
  • 061730Z AUTO VRB01KT 9999 VCTS FEW024/// ///CB 13/12 Q1009
  • 061700Z AUTO 00000KT 8000 VCTS +SHRA BKN009/// BKN049/// ///CB 12/12 Q1010
  • 061630Z AUTO 00000KT 9999 VCTS FEW010/// SCT050/// ///CB 13/13 Q1009
  • 061600Z AUTO 00000KT 9000 -RA FEW016 BKN058 11/11 Q1009 RETS
  • 061530Z AUTO 28016G31KT 220V310 9000 -TSRA FEW018/// BKN030/// BKN039/// ///CB 14/12 Q1009

TAF TAF LEBG
Valid from the 06 at 18:00 until the 07 at 03:00 UTC


061700Z 0618/0703 03012KT 9999 SCT050
TEMPO 0618/0624 RA SHRA SCT030TCU
PROB40
TEMPO 0618/0620 VRB15G25KT 3000 TSRA SCT030CB



MET'MAP, your aeronautical weather chart ! - Copyright ORBIFLY December 2007 - Disclaimer

ORBIFLY MET'MAP TEAM :

Programming & Development : Alexandra Zaïnal
Concept & original design : Baudouin d'Aumeries
Assistance for programming : Marc-Olivier Méhu
Technical & hardware support : Manuel Goepfert

Contact : metmap@orbifly.com




SOURCES & CREDITS :

   NOAA